sensor_id;sensor_type;location;lat;lon;timestamp;P1;durP1;ratioP1;P2;durP2;ratioP2
48203;SDS011;33994;50.998;5.864;2024-03-08T00:02:10;30.55;;;18.55;;
48203;SDS011;33994;50.998;5.864;2024-03-08T00:05:13;30.15;;;17.23;;
48203;SDS011;33994;50.998;5.864;2024-03-08T00:08:18;30.38;;;18.55;;
48203;SDS011;33994;50.998;5.864;2024-03-08T00:11:21;30.55;;;17.77;;
48203;SDS011;33994;50.998;5.864;2024-03-08T00:14:25;29.20;;;18.65;;
48203;SDS011;33994;50.998;5.864;2024-03-08T00:17:28;31.63;;;18.90;;
48203;SDS011;33994;50.998;5.864;2024-03-08T00:20:31;31.20;;;18.15;;
48203;SDS011;33994;50.998;5.864;2024-03-08T00:23:36;31.27;;;18.23;;
48203;SDS011;33994;50.998;5.864;2024-03-08T00:26:39;29.02;;;17.27;;
48203;SDS011;33994;50.998;5.864;2024-03-08T00:29:42;32.28;;;18.67;;
48203;SDS011;33994;50.998;5.864;2024-03-08T00:32:45;34.10;;;18.55;;
48203;SDS011;33994;50.998;5.864;2024-03-08T00:35:48;33.42;;;18.65;;
48203;SDS011;33994;50.998;5.864;2024-03-08T00:38:53;30.92;;;18.63;;
48203;SDS011;33994;50.998;5.864;2024-03-08T00:41:56;32.83;;;18.75;;
48203;SDS011;33994;50.998;5.864;2024-03-08T00:44:59;35.35;;;19.30;;
48203;SDS011;33994;50.998;5.864;2024-03-08T00:48:03;34.03;;;18.50;;
48203;SDS011;33994;50.998;5.864;2024-03-08T00:51:07;31.90;;;18.15;;
48203;SDS011;33994;50.998;5.864;2024-03-08T00:54:11;34.50;;;19.77;;
48203;SDS011;33994;50.998;5.864;2024-03-08T00:57:14;33.80;;;19.05;;
48203;SDS011;33994;50.998;5.864;2024-03-08T01:00:18;31.27;;;18.73;;
48203;SDS011;33994;50.998;5.864;2024-03-08T01:03:22;30.08;;;18.52;;
48203;SDS011;33994;50.998;5.864;2024-03-08T01:06:26;34.55;;;18.77;;
48203;SDS011;33994;50.998;5.864;2024-03-08T01:09:30;33.65;;;19.60;;
48203;SDS011;33994;50.998;5.864;2024-03-08T01:12:34;31.88;;;18.73;;
48203;SDS011;33994;50.998;5.864;2024-03-08T01:15:37;32.83;;;19.98;;
48203;SDS011;33994;50.998;5.864;2024-03-08T01:18:40;30.40;;;18.83;;
48203;SDS011;33994;50.998;5.864;2024-03-08T01:21:43;32.45;;;19.05;;
48203;SDS011;33994;50.998;5.864;2024-03-08T01:24:48;32.08;;;17.92;;
48203;SDS011;33994;50.998;5.864;2024-03-08T01:27:52;29.92;;;18.90;;
48203;SDS011;33994;50.998;5.864;2024-03-08T01:30:55;36.80;;;19.23;;
48203;SDS011;33994;50.998;5.864;2024-03-08T01:33:58;32.00;;;19.13;;
48203;SDS011;33994;50.998;5.864;2024-03-08T01:37:01;35.42;;;18.75;;
48203;SDS011;33994;50.998;5.864;2024-03-08T01:40:06;35.22;;;19.25;;
48203;SDS011;33994;50.998;5.864;2024-03-08T01:43:19;34.55;;;19.38;;
48203;SDS011;33994;50.998;5.864;2024-03-08T01:46:22;32.70;;;19.08;;
48203;SDS011;33994;50.998;5.864;2024-03-08T01:49:26;34.75;;;18.83;;
48203;SDS011;33994;50.998;5.864;2024-03-08T01:52:30;31.90;;;19.23;;
48203;SDS011;33994;50.998;5.864;2024-03-08T01:55:34;34.60;;;18.63;;
48203;SDS011;33994;50.998;5.864;2024-03-08T01:58:39;36.70;;;18.20;;
48203;SDS011;33994;50.998;5.864;2024-03-08T02:01:44;35.28;;;17.95;;
48203;SDS011;33994;50.998;5.864;2024-03-08T02:04:47;35.45;;;18.77;;
48203;SDS011;33994;50.998;5.864;2024-03-08T02:07:51;33.50;;;18.73;;
48203;SDS011;33994;50.998;5.864;2024-03-08T02:10:55;31.17;;;18.40;;
48203;SDS011;33994;50.998;5.864;2024-03-08T02:13:59;33.17;;;17.63;;
48203;SDS011;33994;50.998;5.864;2024-03-08T02:17:02;37.72;;;19.23;;
48203;SDS011;33994;50.998;5.864;2024-03-08T02:20:05;31.27;;;18.40;;
48203;SDS011;33994;50.998;5.864;2024-03-08T02:23:10;32.60;;;18.90;;
48203;SDS011;33994;50.998;5.864;2024-03-08T02:26:14;32.95;;;18.83;;
48203;SDS011;33994;50.998;5.864;2024-03-08T02:29:17;34.03;;;18.92;;
48203;SDS011;33994;50.998;5.864;2024-03-08T02:32:21;33.33;;;18.48;;
48203;SDS011;33994;50.998;5.864;2024-03-08T02:35:24;36.15;;;18.58;;
48203;SDS011;33994;50.998;5.864;2024-03-08T02:38:29;36.65;;;18.95;;
48203;SDS011;33994;50.998;5.864;2024-03-08T02:41:32;34.03;;;18.60;;
48203;SDS011;33994;50.998;5.864;2024-03-08T02:44:35;38.53;;;19.83;;
48203;SDS011;33994;50.998;5.864;2024-03-08T02:47:38;35.03;;;19.23;;
48203;SDS011;33994;50.998;5.864;2024-03-08T02:50:42;33.17;;;18.05;;
48203;SDS011;33994;50.998;5.864;2024-03-08T02:53:47;36.15;;;17.80;;
48203;SDS011;33994;50.998;5.864;2024-03-08T02:56:50;37.40;;;18.75;;
48203;SDS011;33994;50.998;5.864;2024-03-08T02:59:53;38.42;;;19.65;;
48203;SDS011;33994;50.998;5.864;2024-03-08T03:02:57;35.70;;;19.45;;
48203;SDS011;33994;50.998;5.864;2024-03-08T03:06:00;33.20;;;18.67;;
48203;SDS011;33994;50.998;5.864;2024-03-08T03:09:05;33.47;;;18.42;;
48203;SDS011;33994;50.998;5.864;2024-03-08T03:12:08;39.95;;;19.15;;
48203;SDS011;33994;50.998;5.864;2024-03-08T03:15:11;37.58;;;18.52;;
48203;SDS011;33994;50.998;5.864;2024-03-08T03:18:15;36.33;;;18.65;;
48203;SDS011;33994;50.998;5.864;2024-03-08T03:21:18;34.03;;;19.05;;
48203;SDS011;33994;50.998;5.864;2024-03-08T03:24:22;35.30;;;19.45;;
48203;SDS011;33994;50.998;5.864;2024-03-08T03:27:26;35.22;;;19.95;;
48203;SDS011;33994;50.998;5.864;2024-03-08T03:30:29;34.65;;;18.20;;
48203;SDS011;33994;50.998;5.864;2024-03-08T03:33:32;38.72;;;20.35;;
48203;SDS011;33994;50.998;5.864;2024-03-08T03:36:35;37.53;;;20.98;;
48203;SDS011;33994;50.998;5.864;2024-03-08T03:39:40;35.15;;;18.65;;
48203;SDS011;33994;50.998;5.864;2024-03-08T03:42:43;41.63;;;19.58;;
48203;SDS011;33994;50.998;5.864;2024-03-08T03:45:46;38.83;;;19.08;;
48203;SDS011;33994;50.998;5.864;2024-03-08T03:48:50;34.47;;;18.63;;
48203;SDS011;33994;50.998;5.864;2024-03-08T03:51:53;40.70;;;19.60;;
48203;SDS011;33994;50.998;5.864;2024-03-08T03:54:58;38.85;;;18.67;;
48203;SDS011;33994;50.998;5.864;2024-03-08T03:58:01;40.63;;;19.58;;
48203;SDS011;33994;50.998;5.864;2024-03-08T04:01:04;37.03;;;19.67;;
48203;SDS011;33994;50.998;5.864;2024-03-08T04:04:08;35.70;;;19.70;;
48203;SDS011;33994;50.998;5.864;2024-03-08T04:07:11;35.70;;;19.55;;
48203;SDS011;33994;50.998;5.864;2024-03-08T04:10:15;33.78;;;18.80;;
48203;SDS011;33994;50.998;5.864;2024-03-08T04:13:19;38.40;;;19.45;;
48203;SDS011;33994;50.998;5.864;2024-03-08T04:16:22;32.45;;;19.20;;
48203;SDS011;33994;50.998;5.864;2024-03-08T04:19:25;43.85;;;21.80;;
48203;SDS011;33994;50.998;5.864;2024-03-08T04:22:29;37.55;;;18.73;;
48203;SDS011;33994;50.998;5.864;2024-03-08T04:25:33;37.65;;;18.95;;
48203;SDS011;33994;50.998;5.864;2024-03-08T04:28:37;38.72;;;18.80;;
48203;SDS011;33994;50.998;5.864;2024-03-08T04:31:40;38.35;;;19.35;;
48203;SDS011;33994;50.998;5.864;2024-03-08T04:34:43;35.80;;;19.65;;
48203;SDS011;33994;50.998;5.864;2024-03-08T04:37:46;40.90;;;19.40;;
48203;SDS011;33994;50.998;5.864;2024-03-08T04:40:51;41.08;;;19.73;;
48203;SDS011;33994;50.998;5.864;2024-03-08T04:43:54;40.65;;;19.35;;
48203;SDS011;33994;50.998;5.864;2024-03-08T04:46:57;39.95;;;18.92;;
48203;SDS011;33994;50.998;5.864;2024-03-08T04:50:01;39.17;;;20.13;;
48203;SDS011;33994;50.998;5.864;2024-03-08T04:53:04;39.45;;;18.85;;
48203;SDS011;33994;50.998;5.864;2024-03-08T04:56:08;33.17;;;18.30;;
48203;SDS011;33994;50.998;5.864;2024-03-08T04:59:12;34.30;;;18.17;;
48203;SDS011;33994;50.998;5.864;2024-03-08T05:02:15;39.63;;;18.92;;
48203;SDS011;33994;50.998;5.864;2024-03-08T05:05:18;40.90;;;20.63;;
48203;SDS011;33994;50.998;5.864;2024-03-08T05:08:21;40.88;;;19.83;;
48203;SDS011;33994;50.998;5.864;2024-03-08T05:11:26;41.67;;;19.58;;
48203;SDS011;33994;50.998;5.864;2024-03-08T05:14:29;41.33;;;19.67;;
48203;SDS011;33994;50.998;5.864;2024-03-08T05:17:32;40.90;;;20.48;;
48203;SDS011;33994;50.998;5.864;2024-03-08T05:20:35;42.78;;;21.05;;
48203;SDS011;33994;50.998;5.864;2024-03-08T05:23:39;39.28;;;19.23;;
48203;SDS011;33994;50.998;5.864;2024-03-08T05:26:43;39.75;;;20.00;;
48203;SDS011;33994;50.998;5.864;2024-03-08T05:29:47;40.33;;;18.98;;
48203;SDS011;33994;50.998;5.864;2024-03-08T05:32:50;40.63;;;19.95;;
48203;SDS011;33994;50.998;5.864;2024-03-08T05:35:53;40.63;;;19.95;;
48203;SDS011;33994;50.998;5.864;2024-03-08T05:38:56;47.55;;;19.60;;
48203;SDS011;33994;50.998;5.864;2024-03-08T05:42:01;40.33;;;19.88;;
48203;SDS011;33994;50.998;5.864;2024-03-08T05:45:04;39.88;;;19.35;;
48203;SDS011;33994;50.998;5.864;2024-03-08T05:48:08;39.80;;;20.48;;
48203;SDS011;33994;50.998;5.864;2024-03-08T05:51:11;43.03;;;20.00;;
48203;SDS011;33994;50.998;5.864;2024-03-08T05:54:14;43.58;;;19.92;;
48203;SDS011;33994;50.998;5.864;2024-03-08T05:57:19;40.45;;;20.65;;
48203;SDS011;33994;50.998;5.864;2024-03-08T06:00:22;40.65;;;19.75;;
48203;SDS011;33994;50.998;5.864;2024-03-08T06:03:25;45.88;;;20.40;;
48203;SDS011;33994;50.998;5.864;2024-03-08T06:06:29;42.72;;;20.17;;
48203;SDS011;33994;50.998;5.864;2024-03-08T06:09:32;39.40;;;20.00;;
48203;SDS011;33994;50.998;5.864;2024-03-08T06:12:37;40.30;;;18.92;;
48203;SDS011;33994;50.998;5.864;2024-03-08T06:15:40;41.33;;;20.63;;
48203;SDS011;33994;50.998;5.864;2024-03-08T06:18:43;39.17;;;20.63;;
48203;SDS011;33994;50.998;5.864;2024-03-08T06:21:46;38.58;;;20.05;;
48203;SDS011;33994;50.998;5.864;2024-03-08T06:24:50;35.35;;;19.40;;
48203;SDS011;33994;50.998;5.864;2024-03-08T06:27:54;42.25;;;20.67;;
48203;SDS011;33994;50.998;5.864;2024-03-08T06:30:58;43.25;;;19.05;;
48203;SDS011;33994;50.998;5.864;2024-03-08T06:34:01;39.00;;;19.23;;
48203;SDS011;33994;50.998;5.864;2024-03-08T06:37:04;38.30;;;19.52;;
48203;SDS011;33994;50.998;5.864;2024-03-08T06:40:07;40.70;;;20.30;;
48203;SDS011;33994;50.998;5.864;2024-03-08T06:43:13;39.88;;;20.02;;
48203;SDS011;33994;50.998;5.864;2024-03-08T06:46:16;41.22;;;20.27;;
48203;SDS011;33994;50.998;5.864;2024-03-08T06:49:20;35.35;;;19.13;;
48203;SDS011;33994;50.998;5.864;2024-03-08T06:52:23;38.58;;;19.52;;
48203;SDS011;33994;50.998;5.864;2024-03-08T06:55:26;42.38;;;20.08;;
48203;SDS011;33994;50.998;5.864;2024-03-08T06:58:31;40.22;;;19.55;;
48203;SDS011;33994;50.998;5.864;2024-03-08T07:01:34;43.10;;;19.70;;
48203;SDS011;33994;50.998;5.864;2024-03-08T07:04:37;38.42;;;19.95;;
48203;SDS011;33994;50.998;5.864;2024-03-08T07:07:40;37.60;;;19.90;;
48203;SDS011;33994;50.998;5.864;2024-03-08T07:10:43;39.58;;;19.23;;
48203;SDS011;33994;50.998;5.864;2024-03-08T07:13:48;39.33;;;18.77;;
48203;SDS011;33994;50.998;5.864;2024-03-08T07:16:51;40.08;;;19.70;;
48203;SDS011;33994;50.998;5.864;2024-03-08T07:19:54;40.67;;;19.30;;
48203;SDS011;33994;50.998;5.864;2024-03-08T07:22:58;39.80;;;19.40;;
48203;SDS011;33994;50.998;5.864;2024-03-08T07:26:01;37.70;;;18.95;;
48203;SDS011;33994;50.998;5.864;2024-03-08T07:29:06;38.08;;;17.55;;
48203;SDS011;33994;50.998;5.864;2024-03-08T07:32:09;36.97;;;18.55;;
48203;SDS011;33994;50.998;5.864;2024-03-08T07:35:12;40.55;;;19.38;;
48203;SDS011;33994;50.998;5.864;2024-03-08T07:38:16;36.42;;;18.83;;
48203;SDS011;33994;50.998;5.864;2024-03-08T07:41:19;37.40;;;19.42;;
48203;SDS011;33994;50.998;5.864;2024-03-08T07:44:23;40.55;;;19.23;;
48203;SDS011;33994;50.998;5.864;2024-03-08T07:47:26;40.65;;;20.98;;
48203;SDS011;33994;50.998;5.864;2024-03-08T07:50:30;36.30;;;18.85;;
48203;SDS011;33994;50.998;5.864;2024-03-08T07:53:33;37.95;;;18.80;;
48203;SDS011;33994;50.998;5.864;2024-03-08T07:56:36;40.45;;;18.45;;
48203;SDS011;33994;50.998;5.864;2024-03-08T07:59:41;38.63;;;19.77;;
48203;SDS011;33994;50.998;5.864;2024-03-08T08:02:44;42.20;;;20.15;;
48203;SDS011;33994;50.998;5.864;2024-03-08T08:05:47;33.30;;;18.13;;
48203;SDS011;33994;50.998;5.864;2024-03-08T08:08:50;38.72;;;19.25;;
48203;SDS011;33994;50.998;5.864;2024-03-08T08:11:54;38.45;;;18.23;;
48203;SDS011;33994;50.998;5.864;2024-03-08T08:14:59;35.10;;;18.88;;
48203;SDS011;33994;50.998;5.864;2024-03-08T08:18:02;36.08;;;18.48;;
48203;SDS011;33994;50.998;5.864;2024-03-08T08:21:06;37.30;;;18.40;;
48203;SDS011;33994;50.998;5.864;2024-03-08T08:24:09;36.90;;;20.33;;
48203;SDS011;33994;50.998;5.864;2024-03-08T08:27:12;36.22;;;18.35;;
48203;SDS011;33994;50.998;5.864;2024-03-08T08:30:17;37.55;;;18.15;;
48203;SDS011;33994;50.998;5.864;2024-03-08T08:33:20;43.28;;;19.70;;
48203;SDS011;33994;50.998;5.864;2024-03-08T08:36:23;37.85;;;18.55;;
48203;SDS011;33994;50.998;5.864;2024-03-08T08:39:26;38.08;;;18.88;;
48203;SDS011;33994;50.998;5.864;2024-03-08T08:42:29;35.70;;;19.27;;
48203;SDS011;33994;50.998;5.864;2024-03-08T08:45:34;32.72;;;18.73;;
48203;SDS011;33994;50.998;5.864;2024-03-08T08:48:37;36.40;;;18.48;;
48203;SDS011;33994;50.998;5.864;2024-03-08T08:51:40;36.13;;;17.60;;
48203;SDS011;33994;50.998;5.864;2024-03-08T08:54:43;37.92;;;18.35;;
48203;SDS011;33994;50.998;5.864;2024-03-08T08:57:46;36.70;;;18.50;;
48203;SDS011;33994;50.998;5.864;2024-03-08T09:00:51;41.05;;;18.80;;
48203;SDS011;33994;50.998;5.864;2024-03-08T09:03:54;34.08;;;17.60;;
48203;SDS011;33994;50.998;5.864;2024-03-08T09:06:58;37.15;;;18.83;;
48203;SDS011;33994;50.998;5.864;2024-03-08T09:10:01;33.75;;;16.67;;
48203;SDS011;33994;50.998;5.864;2024-03-08T09:13:04;35.88;;;18.02;;
48203;SDS011;33994;50.998;5.864;2024-03-08T09:16:09;35.30;;;18.33;;
48203;SDS011;33994;50.998;5.864;2024-03-08T09:19:12;36.38;;;19.33;;
48203;SDS011;33994;50.998;5.864;2024-03-08T09:22:15;37.00;;;16.83;;
48203;SDS011;33994;50.998;5.864;2024-03-08T09:25:18;38.95;;;18.25;;
48203;SDS011;33994;50.998;5.864;2024-03-08T09:28:21;39.80;;;17.58;;
48203;SDS011;33994;50.998;5.864;2024-03-08T09:31:26;36.08;;;17.23;;
48203;SDS011;33994;50.998;5.864;2024-03-08T09:34:29;35.38;;;17.40;;
48203;SDS011;33994;50.998;5.864;2024-03-08T09:37:32;33.85;;;18.05;;
48203;SDS011;33994;50.998;5.864;2024-03-08T09:40:36;33.35;;;17.13;;
48203;SDS011;33994;50.998;5.864;2024-03-08T09:43:39;36.42;;;18.60;;
48203;SDS011;33994;50.998;5.864;2024-03-08T09:46:44;35.15;;;18.02;;
48203;SDS011;33994;50.998;5.864;2024-03-08T09:49:47;33.80;;;17.05;;
48203;SDS011;33994;50.998;5.864;2024-03-08T09:52:51;35.05;;;17.38;;
48203;SDS011;33994;50.998;5.864;2024-03-08T09:55:54;29.35;;;16.65;;
48203;SDS011;33994;50.998;5.864;2024-03-08T09:58:57;32.47;;;18.08;;
48203;SDS011;33994;50.998;5.864;2024-03-08T10:02:02;34.83;;;16.75;;
48203;SDS011;33994;50.998;5.864;2024-03-08T10:05:05;34.78;;;16.95;;
48203;SDS011;33994;50.998;5.864;2024-03-08T10:08:10;35.97;;;17.92;;
48203;SDS011;33994;50.998;5.864;2024-03-08T10:11:13;33.72;;;16.75;;
48203;SDS011;33994;50.998;5.864;2024-03-08T10:14:16;32.65;;;16.98;;
48203;SDS011;33994;50.998;5.864;2024-03-08T10:17:21;32.65;;;16.42;;
48203;SDS011;33994;50.998;5.864;2024-03-08T10:20:24;32.50;;;16.75;;
48203;SDS011;33994;50.998;5.864;2024-03-08T10:23:28;34.05;;;17.23;;
48203;SDS011;33994;50.998;5.864;2024-03-08T10:26:31;29.60;;;15.80;;
48203;SDS011;33994;50.998;5.864;2024-03-08T10:29:35;29.88;;;15.73;;
48203;SDS011;33994;50.998;5.864;2024-03-08T10:32:40;32.05;;;15.52;;
48203;SDS011;33994;50.998;5.864;2024-03-08T10:35:44;27.52;;;15.98;;
48203;SDS011;33994;50.998;5.864;2024-03-08T10:38:47;29.52;;;15.93;;
48203;SDS011;33994;50.998;5.864;2024-03-08T10:41:56;31.35;;;15.80;;
48203;SDS011;33994;50.998;5.864;2024-03-08T10:45:01;34.47;;;16.38;;
48203;SDS011;33994;50.998;5.864;2024-03-08T10:51:40;31.63;;;15.63;;
48203;SDS011;33994;50.998;5.864;2024-03-08T10:54:43;27.75;;;15.10;;
48203;SDS011;33994;50.998;5.864;2024-03-08T10:57:48;29.50;;;15.50;;
48203;SDS011;33994;50.998;5.864;2024-03-08T11:00:51;30.35;;;15.20;;
48203;SDS011;33994;50.998;5.864;2024-03-08T11:03:56;27.88;;;14.57;;
48203;SDS011;33994;50.998;5.864;2024-03-08T11:07:00;27.90;;;13.73;;
48203;SDS011;33994;50.998;5.864;2024-03-08T11:10:04;24.48;;;13.55;;
48203;SDS011;33994;50.998;5.864;2024-03-08T11:13:19;26.63;;;14.13;;
48203;SDS011;33994;50.998;5.864;2024-03-08T11:16:39;27.67;;;14.25;;
48203;SDS011;33994;50.998;5.864;2024-03-08T11:19:47;29.73;;;14.57;;
48203;SDS011;33994;50.998;5.864;2024-03-08T11:22:51;28.05;;;13.57;;
48203;SDS011;33994;50.998;5.864;2024-03-08T11:25:55;32.70;;;14.90;;
48203;SDS011;33994;50.998;5.864;2024-03-08T11:32:32;27.42;;;13.48;;
48203;SDS011;33994;50.998;5.864;2024-03-08T11:35:36;23.35;;;13.40;;
48203;SDS011;33994;50.998;5.864;2024-03-08T11:38:40;25.02;;;13.43;;
48203;SDS011;33994;50.998;5.864;2024-03-08T11:41:44;26.58;;;14.35;;
48203;SDS011;33994;50.998;5.864;2024-03-08T11:44:47;27.45;;;14.05;;
48203;SDS011;33994;50.998;5.864;2024-03-08T11:47:53;24.63;;;13.25;;
48203;SDS011;33994;50.998;5.864;2024-03-08T11:51:00;26.90;;;14.23;;
48203;SDS011;33994;50.998;5.864;2024-03-08T11:54:03;21.58;;;11.93;;
48203;SDS011;33994;50.998;5.864;2024-03-08T11:57:07;25.42;;;13.88;;
48203;SDS011;33994;50.998;5.864;2024-03-08T12:00:14;22.35;;;13.73;;
48203;SDS011;33994;50.998;5.864;2024-03-08T12:03:19;25.73;;;13.93;;
48203;SDS011;33994;50.998;5.864;2024-03-08T12:06:23;30.05;;;14.15;;
48203;SDS011;33994;50.998;5.864;2024-03-08T12:09:27;24.10;;;12.93;;
48203;SDS011;33994;50.998;5.864;2024-03-08T12:12:31;22.08;;;13.98;;
48203;SDS011;33994;50.998;5.864;2024-03-08T12:15:36;23.77;;;12.43;;
48203;SDS011;33994;50.998;5.864;2024-03-08T12:18:39;24.75;;;13.50;;
48203;SDS011;33994;50.998;5.864;2024-03-08T12:21:43;23.60;;;13.30;;
48203;SDS011;33994;50.998;5.864;2024-03-08T12:25:02;26.13;;;13.50;;
48203;SDS011;33994;50.998;5.864;2024-03-08T12:28:09;23.75;;;12.98;;
48203;SDS011;33994;50.998;5.864;2024-03-08T12:31:13;27.20;;;13.20;;
48203;SDS011;33994;50.998;5.864;2024-03-08T12:34:17;23.90;;;13.18;;
48203;SDS011;33994;50.998;5.864;2024-03-08T12:37:22;24.10;;;12.77;;
48203;SDS011;33994;50.998;5.864;2024-03-08T12:40:25;23.05;;;13.15;;
48203;SDS011;33994;50.998;5.864;2024-03-08T12:43:30;28.10;;;14.25;;
48203;SDS011;33994;50.998;5.864;2024-03-08T12:46:33;24.63;;;13.25;;
48203;SDS011;33994;50.998;5.864;2024-03-08T12:49:36;26.13;;;14.18;;
48203;SDS011;33994;50.998;5.864;2024-03-08T12:52:41;22.27;;;13.50;;
48203;SDS011;33994;50.998;5.864;2024-03-08T12:55:44;22.67;;;13.48;;
48203;SDS011;33994;50.998;5.864;2024-03-08T12:58:47;22.40;;;13.45;;
48203;SDS011;33994;50.998;5.864;2024-03-08T13:01:51;26.88;;;12.48;;
48203;SDS011;33994;50.998;5.864;2024-03-08T13:04:54;24.15;;;12.38;;
48203;SDS011;33994;50.998;5.864;2024-03-08T13:07:58;23.42;;;12.43;;
48203;SDS011;33994;50.998;5.864;2024-03-08T13:11:02;22.23;;;12.73;;
48203;SDS011;33994;50.998;5.864;2024-03-08T13:14:05;24.15;;;13.80;;
48203;SDS011;33994;50.998;5.864;2024-03-08T13:17:08;25.20;;;13.45;;
48203;SDS011;33994;50.998;5.864;2024-03-08T13:20:11;23.48;;;12.88;;
48203;SDS011;33994;50.998;5.864;2024-03-08T13:23:16;24.15;;;12.88;;
48203;SDS011;33994;50.998;5.864;2024-03-08T13:26:19;22.08;;;12.50;;
48203;SDS011;33994;50.998;5.864;2024-03-08T13:29:23;23.38;;;12.73;;
48203;SDS011;33994;50.998;5.864;2024-03-08T13:32:26;24.48;;;12.38;;
48203;SDS011;33994;50.998;5.864;2024-03-08T13:35:29;26.33;;;12.05;;
48203;SDS011;33994;50.998;5.864;2024-03-08T13:38:33;23.25;;;12.52;;
48203;SDS011;33994;50.998;5.864;2024-03-08T13:41:36;27.15;;;13.32;;
48203;SDS011;33994;50.998;5.864;2024-03-08T13:44:43;24.27;;;12.30;;
48203;SDS011;33994;50.998;5.864;2024-03-08T13:47:46;21.55;;;11.73;;
48203;SDS011;33994;50.998;5.864;2024-03-08T13:50:49;20.80;;;11.43;;
48203;SDS011;33994;50.998;5.864;2024-03-08T13:53:54;22.17;;;12.10;;
48203;SDS011;33994;50.998;5.864;2024-03-08T13:56:57;19.38;;;10.88;;
48203;SDS011;33994;50.998;5.864;2024-03-08T14:00:00;21.65;;;11.98;;
48203;SDS011;33994;50.998;5.864;2024-03-08T14:03:04;19.80;;;11.23;;
48203;SDS011;33994;50.998;5.864;2024-03-08T14:06:07;22.73;;;11.15;;
48203;SDS011;33994;50.998;5.864;2024-03-08T14:09:12;22.58;;;11.82;;
48203;SDS011;33994;50.998;5.864;2024-03-08T14:12:15;20.17;;;11.23;;
48203;SDS011;33994;50.998;5.864;2024-03-08T14:15:19;18.75;;;10.32;;
48203;SDS011;33994;50.998;5.864;2024-03-08T14:18:22;21.42;;;11.70;;
48203;SDS011;33994;50.998;5.864;2024-03-08T14:21:25;19.00;;;11.75;;
48203;SDS011;33994;50.998;5.864;2024-03-08T14:24:29;24.10;;;12.75;;
48203;SDS011;33994;50.998;5.864;2024-03-08T14:27:33;19.50;;;12.00;;
48203;SDS011;33994;50.998;5.864;2024-03-08T14:30:36;20.60;;;10.63;;
48203;SDS011;33994;50.998;5.864;2024-03-08T14:33:39;20.40;;;10.60;;
48203;SDS011;33994;50.998;5.864;2024-03-08T14:36:42;23.75;;;11.57;;
48203;SDS011;33994;50.998;5.864;2024-03-08T14:39:47;20.52;;;10.85;;
48203;SDS011;33994;50.998;5.864;2024-03-08T14:42:50;16.88;;;10.38;;
48203;SDS011;33994;50.998;5.864;2024-03-08T14:45:54;17.63;;;10.45;;
48203;SDS011;33994;50.998;5.864;2024-03-08T14:48:57;20.88;;;11.45;;
48203;SDS011;33994;50.998;5.864;2024-03-08T14:52:00;18.80;;;10.68;;
48203;SDS011;33994;50.998;5.864;2024-03-08T14:55:05;19.50;;;11.02;;
48203;SDS011;33994;50.998;5.864;2024-03-08T14:58:08;21.42;;;11.80;;
48203;SDS011;33994;50.998;5.864;2024-03-08T15:01:11;19.90;;;10.93;;
48203;SDS011;33994;50.998;5.864;2024-03-08T15:04:15;19.08;;;10.38;;
48203;SDS011;33994;50.998;5.864;2024-03-08T15:07:18;21.55;;;10.80;;
48203;SDS011;33994;50.998;5.864;2024-03-08T15:10:22;16.63;;;10.30;;
48203;SDS011;33994;50.998;5.864;2024-03-08T15:13:26;18.35;;;11.18;;
48203;SDS011;33994;50.998;5.864;2024-03-08T15:16:29;18.33;;;10.25;;
48203;SDS011;33994;50.998;5.864;2024-03-08T15:19:32;19.30;;;10.68;;
48203;SDS011;33994;50.998;5.864;2024-03-08T15:22:35;21.70;;;10.02;;
48203;SDS011;33994;50.998;5.864;2024-03-08T15:25:40;18.88;;;10.75;;
48203;SDS011;33994;50.998;5.864;2024-03-08T15:28:43;19.42;;;10.65;;
48203;SDS011;33994;50.998;5.864;2024-03-08T15:31:47;20.08;;;10.10;;
48203;SDS011;33994;50.998;5.864;2024-03-08T15:34:50;19.90;;;10.90;;
48203;SDS011;33994;50.998;5.864;2024-03-08T15:37:53;17.45;;;9.98;;
48203;SDS011;33994;50.998;5.864;2024-03-08T15:40:58;19.67;;;10.30;;
48203;SDS011;33994;50.998;5.864;2024-03-08T15:44:01;19.33;;;10.32;;
48203;SDS011;33994;50.998;5.864;2024-03-08T15:47:04;17.90;;;9.43;;
48203;SDS011;33994;50.998;5.864;2024-03-08T15:50:08;18.75;;;10.40;;
48203;SDS011;33994;50.998;5.864;2024-03-08T15:53:12;16.25;;;9.55;;
48203;SDS011;33994;50.998;5.864;2024-03-08T15:56:16;17.00;;;9.88;;
48203;SDS011;33994;50.998;5.864;2024-03-08T15:59:19;18.60;;;10.50;;
48203;SDS011;33994;50.998;5.864;2024-03-08T16:02:23;18.73;;;10.68;;
48203;SDS011;33994;50.998;5.864;2024-03-08T16:05:26;17.17;;;10.25;;
48203;SDS011;33994;50.998;5.864;2024-03-08T16:08:29;23.88;;;11.13;;
48203;SDS011;33994;50.998;5.864;2024-03-08T16:11:34;20.23;;;10.82;;
48203;SDS011;33994;50.998;5.864;2024-03-08T16:14:37;19.38;;;9.85;;
48203;SDS011;33994;50.998;5.864;2024-03-08T16:17:40;17.65;;;10.05;;
48203;SDS011;33994;50.998;5.864;2024-03-08T16:20:43;18.20;;;10.35;;
48203;SDS011;33994;50.998;5.864;2024-03-08T16:23:47;19.13;;;10.48;;
48203;SDS011;33994;50.998;5.864;2024-03-08T16:26:51;17.67;;;10.20;;
48203;SDS011;33994;50.998;5.864;2024-03-08T16:29:55;21.55;;;10.10;;
48203;SDS011;33994;50.998;5.864;2024-03-08T16:32:58;23.00;;;11.02;;
48203;SDS011;33994;50.998;5.864;2024-03-08T16:36:01;19.60;;;10.32;;
48203;SDS011;33994;50.998;5.864;2024-03-08T16:39:05;18.88;;;11.02;;
48203;SDS011;33994;50.998;5.864;2024-03-08T16:42:10;20.85;;;10.75;;
48203;SDS011;33994;50.998;5.864;2024-03-08T16:45:13;18.95;;;10.95;;
48203;SDS011;33994;50.998;5.864;2024-03-08T16:48:16;16.88;;;10.77;;
48203;SDS011;33994;50.998;5.864;2024-03-08T16:51:19;20.38;;;10.73;;
48203;SDS011;33994;50.998;5.864;2024-03-08T16:54:23;19.15;;;11.07;;
48203;SDS011;33994;50.998;5.864;2024-03-08T16:57:27;19.85;;;10.93;;
48203;SDS011;33994;50.998;5.864;2024-03-08T17:00:31;19.23;;;11.13;;
48203;SDS011;33994;50.998;5.864;2024-03-08T17:03:34;18.63;;;10.77;;
48203;SDS011;33994;50.998;5.864;2024-03-08T17:06:37;20.10;;;11.35;;
48203;SDS011;33994;50.998;5.864;2024-03-08T17:09:42;19.92;;;11.85;;
48203;SDS011;33994;50.998;5.864;2024-03-08T17:12:46;18.90;;;10.60;;
48203;SDS011;33994;50.998;5.864;2024-03-08T17:15:50;18.60;;;10.73;;
48203;SDS011;33994;50.998;5.864;2024-03-08T17:18:54;19.73;;;11.60;;
48203;SDS011;33994;50.998;5.864;2024-03-08T17:21:58;22.63;;;11.60;;
48203;SDS011;33994;50.998;5.864;2024-03-08T17:25:01;24.63;;;11.90;;
48203;SDS011;33994;50.998;5.864;2024-03-08T17:28:06;23.83;;;11.82;;
48203;SDS011;33994;50.998;5.864;2024-03-08T17:31:09;22.20;;;11.02;;
48203;SDS011;33994;50.998;5.864;2024-03-08T17:34:13;19.17;;;10.55;;
48203;SDS011;33994;50.998;5.864;2024-03-08T17:37:16;20.73;;;12.05;;
48203;SDS011;33994;50.998;5.864;2024-03-08T17:40:19;19.75;;;10.90;;
48203;SDS011;33994;50.998;5.864;2024-03-08T17:43:24;21.67;;;10.77;;
48203;SDS011;33994;50.998;5.864;2024-03-08T17:46:28;21.00;;;11.13;;
48203;SDS011;33994;50.998;5.864;2024-03-08T17:49:31;21.90;;;11.80;;
48203;SDS011;33994;50.998;5.864;2024-03-08T17:52:34;17.83;;;10.82;;
48203;SDS011;33994;50.998;5.864;2024-03-08T17:55:37;22.77;;;12.05;;
48203;SDS011;33994;50.998;5.864;2024-03-08T17:58:42;24.23;;;11.73;;
48203;SDS011;33994;50.998;5.864;2024-03-08T18:01:46;21.17;;;11.73;;